createdAt,value
2017-10-05T00:01:06.240Z,15.08
2017-10-05T00:03:35.362Z,15.16
2017-10-05T00:06:04.624Z,14.87
2017-10-05T00:08:33.380Z,14.81
2017-10-05T00:11:01.957Z,14.58
2017-10-05T00:13:30.307Z,14.48
2017-10-05T00:15:59.163Z,14.47
2017-10-05T00:18:28.326Z,14.73
2017-10-05T00:20:56.874Z,14.74
2017-10-05T00:23:25.601Z,14.72
2017-10-05T00:25:53.991Z,14.60
2017-10-05T00:28:22.352Z,14.58
2017-10-05T00:30:50.975Z,14.71
2017-10-05T00:33:19.654Z,14.95
2017-10-05T00:35:49.498Z,14.64
2017-10-05T00:38:18.611Z,14.43
2017-10-05T00:40:46.993Z,14.41
2017-10-05T00:43:17.115Z,14.79
2017-10-05T00:45:46.304Z,14.77
2017-10-05T00:48:15.499Z,14.56
2017-10-05T00:50:43.862Z,14.43
2017-10-05T00:53:12.290Z,14.31
2017-10-05T00:55:41.080Z,14.26
2017-10-05T00:58:09.409Z,14.26
2017-10-05T01:00:37.762Z,14.15
2017-10-05T01:03:06.137Z,14.37
2017-10-05T01:05:34.486Z,14.20
2017-10-05T01:08:02.909Z,14.14
2017-10-05T01:10:31.712Z,14.03
2017-10-05T01:13:00.468Z,14.11
2017-10-05T01:15:28.830Z,14.06
2017-10-05T01:17:57.606Z,14.05
2017-10-05T01:20:25.963Z,14.24
2017-10-05T01:22:54.311Z,14.27
2017-10-05T01:25:22.691Z,14.19
2017-10-05T01:27:51.405Z,14.17
2017-10-05T01:30:20.514Z,14.23
2017-10-05T01:32:49.482Z,14.30
2017-10-05T01:35:18.937Z,14.19
2017-10-05T01:37:47.539Z,14.15
2017-10-05T01:40:16.299Z,14.16
2017-10-05T01:42:44.634Z,14.17
2017-10-05T01:45:13.009Z,14.25
2017-10-05T01:47:41.393Z,14.15
2017-10-05T01:50:09.748Z,14.19
2017-10-05T01:52:39.019Z,14.11
2017-10-05T01:55:07.619Z,14.10
2017-10-05T01:57:36.657Z,13.94
2017-10-05T02:00:06.299Z,14.00
2017-10-05T02:02:34.783Z,14.05
2017-10-05T02:05:03.126Z,14.00
2017-10-05T02:07:31.473Z,14.04
2017-10-05T02:09:59.953Z,14.07
2017-10-05T02:12:28.321Z,14.16
2017-10-05T02:14:56.739Z,14.09
2017-10-05T02:17:26.803Z,14.00
2017-10-05T02:19:55.143Z,14.13
2017-10-05T02:22:24.253Z,14.29
2017-10-05T02:24:54.843Z,14.22
2017-10-05T02:27:23.186Z,14.38
2017-10-05T02:29:52.331Z,14.07
2017-10-05T02:32:22.163Z,14.26
2017-10-05T02:34:50.536Z,14.40
2017-10-05T02:37:18.890Z,14.41
2017-10-05T02:39:47.278Z,14.39
2017-10-05T02:42:16.414Z,14.26
2017-10-05T02:44:46.329Z,14.15
2017-10-05T02:47:16.131Z,14.10
2017-10-05T02:49:45.242Z,14.22
2017-10-05T02:52:13.595Z,13.91
2017-10-05T02:54:42.786Z,14.15
2017-10-05T02:57:12.260Z,14.01
2017-10-05T02:59:40.607Z,14.00
2017-10-05T03:02:08.972Z,14.06
2017-10-05T03:04:38.528Z,14.23
2017-10-05T03:07:06.869Z,14.12
2017-10-05T03:09:35.580Z,14.29
2017-10-05T03:12:03.913Z,14.16
2017-10-05T03:14:33.040Z,14.06
2017-10-05T03:17:01.645Z,14.20
2017-10-05T03:19:30.450Z,14.24
2017-10-05T03:21:59.425Z,14.26
2017-10-05T03:24:27.812Z,14.41
2017-10-05T03:26:56.164Z,14.19
2017-10-05T03:29:24.503Z,14.14
2017-10-05T03:31:53.653Z,14.13
2017-10-05T03:34:22.886Z,14.18
2017-10-05T03:36:51.249Z,13.85
2017-10-05T03:39:19.639Z,13.72
2017-10-05T03:41:48.012Z,13.75
2017-10-05T03:44:17.270Z,13.99
2017-10-05T03:46:46.845Z,13.98
2017-10-05T03:49:15.527Z,14.05
2017-10-05T03:51:45.206Z,13.91
2017-10-05T03:54:13.631Z,13.91
2017-10-05T03:56:43.534Z,13.83
2017-10-05T03:59:11.883Z,13.76
2017-10-05T04:01:41.040Z,13.93
2017-10-05T04:04:09.773Z,13.99
2017-10-05T04:06:38.178Z,13.95
2017-10-05T04:09:07.469Z,13.90
2017-10-05T04:11:35.857Z,13.95
2017-10-05T04:14:04.202Z,13.84
2017-10-05T04:16:32.790Z,13.87
2017-10-05T04:19:01.297Z,13.70
2017-10-05T04:21:29.642Z,14.05
2017-10-05T04:23:58.629Z,14.16
2017-10-05T04:26:27.898Z,13.95
2017-10-05T04:28:56.238Z,13.81
2017-10-05T04:31:25.008Z,13.92
2017-10-05T04:33:53.442Z,13.81
2017-10-05T04:36:22.548Z,13.83
2017-10-05T04:38:52.544Z,13.80
2017-10-05T04:41:20.941Z,13.94
2017-10-05T04:43:51.392Z,13.75
2017-10-05T04:46:19.922Z,13.89
2017-10-05T04:48:49.132Z,13.78
2017-10-05T04:51:18.525Z,13.77
2017-10-05T04:53:47.726Z,13.97
2017-10-05T04:56:16.871Z,13.90
2017-10-05T04:58:45.919Z,13.99
2017-10-05T05:01:16.071Z,13.88
2017-10-05T05:03:45.051Z,13.88
2017-10-05T05:06:14.185Z,13.78
2017-10-05T05:08:43.328Z,13.57
2017-10-05T05:11:11.845Z,13.48
2017-10-05T05:13:40.977Z,13.54
2017-10-05T05:16:10.321Z,13.71
2017-10-05T05:18:40.390Z,13.93
2017-10-05T05:21:09.775Z,13.73
2017-10-05T05:23:38.831Z,13.55
2017-10-05T05:26:07.677Z,13.38
2017-10-05T05:28:36.373Z,13.44
2017-10-05T05:31:04.900Z,13.84
2017-10-05T05:33:34.029Z,13.81
2017-10-05T05:36:02.873Z,13.82
2017-10-05T05:38:31.284Z,13.92
2017-10-05T05:40:59.626Z,13.73
2017-10-05T05:43:28.149Z,13.75
2017-10-05T05:45:56.808Z,13.76
2017-10-05T05:48:25.169Z,14.05
2017-10-05T05:50:53.571Z,13.61
2017-10-05T05:53:23.992Z,13.93
2017-10-05T05:55:52.387Z,14.10
2017-10-05T05:58:22.190Z,13.94
2017-10-05T06:00:50.644Z,14.11
2017-10-05T06:03:20.447Z,13.72
2017-10-05T06:05:49.049Z,13.94
2017-10-05T06:08:17.546Z,13.69
2017-10-05T06:10:46.170Z,13.69
2017-10-05T06:13:15.265Z,13.63
2017-10-05T06:15:43.967Z,13.62
2017-10-05T06:18:13.083Z,13.48
2017-10-05T06:20:41.431Z,13.79
2017-10-05T06:23:11.102Z,13.78
2017-10-05T06:25:39.507Z,13.59
2017-10-05T06:28:07.863Z,13.63
2017-10-05T06:30:36.281Z,13.73
2017-10-05T06:33:04.609Z,13.69
2017-10-05T06:35:33.655Z,13.77
2017-10-05T06:38:02.000Z,13.67
2017-10-05T06:40:31.588Z,13.46
2017-10-05T06:42:59.922Z,13.84
2017-10-05T06:45:28.288Z,13.78
2017-10-05T06:47:56.669Z,13.74
2017-10-05T06:50:25.020Z,13.86
2017-10-05T06:52:53.506Z,13.77
2017-10-05T06:55:21.854Z,13.77
2017-10-05T06:57:50.412Z,13.69
2017-10-05T07:00:19.626Z,14.16
2017-10-05T07:02:48.003Z,13.96
2017-10-05T07:05:18.935Z,13.94
2017-10-05T07:07:47.320Z,13.99
2017-10-05T07:10:16.093Z,13.80
2017-10-05T07:12:45.986Z,13.70
2017-10-05T07:15:16.222Z,13.47
2017-10-05T07:17:44.553Z,13.49
2017-10-05T07:20:13.680Z,13.57
2017-10-05T07:22:43.945Z,13.53
2017-10-05T07:25:13.179Z,13.60
2017-10-05T07:27:42.159Z,13.71
2017-10-05T07:30:10.873Z,13.78
2017-10-05T07:32:39.992Z,13.57
2017-10-05T07:35:08.971Z,13.76
2017-10-05T07:37:38.172Z,13.87
2017-10-05T07:40:07.202Z,13.54
2017-10-05T07:42:36.233Z,13.61
2017-10-05T07:45:05.534Z,13.71
2017-10-05T07:47:34.184Z,13.80
2017-10-05T07:50:02.562Z,13.88
2017-10-05T07:52:31.964Z,13.99
2017-10-05T07:55:01.022Z,13.68
2017-10-05T07:57:30.132Z,13.75
2017-10-05T07:59:58.902Z,13.71
2017-10-05T08:02:28.828Z,13.87
2017-10-05T08:04:57.164Z,13.66
2017-10-05T08:07:26.330Z,13.68
2017-10-05T08:09:54.739Z,13.67
2017-10-05T08:12:23.606Z,13.52
2017-10-05T08:14:52.745Z,13.51
2017-10-05T08:17:21.563Z,13.69
2017-10-05T08:19:49.937Z,13.79
2017-10-05T08:22:18.998Z,13.71
2017-10-05T08:24:47.365Z,13.66
2017-10-05T08:27:15.772Z,13.63
2017-10-05T08:29:44.181Z,13.81
2017-10-05T08:32:13.331Z,13.59
2017-10-05T08:34:41.683Z,13.65
2017-10-05T08:37:10.926Z,13.79
2017-10-05T08:39:39.926Z,13.77
2017-10-05T08:42:09.220Z,13.84
2017-10-05T08:44:38.762Z,14.04
2017-10-05T08:47:07.834Z,14.13
2017-10-05T08:49:36.195Z,14.14
2017-10-05T08:52:04.577Z,13.90
2017-10-05T08:54:32.935Z,14.00
2017-10-05T08:57:01.954Z,13.98
2017-10-05T08:59:31.429Z,14.23
2017-10-05T09:01:59.768Z,14.19
2017-10-05T09:04:28.527Z,14.43
2017-10-05T09:06:58.168Z,14.26
2017-10-05T09:09:26.513Z,13.97
2017-10-05T09:11:55.460Z,14.15
2017-10-05T09:14:25.450Z,14.32
2017-10-05T09:16:53.825Z,14.21
2017-10-05T09:19:22.939Z,14.27
2017-10-05T09:21:51.851Z,14.11
2017-10-05T09:24:20.203Z,14.26
2017-10-05T09:26:49.355Z,14.35
2017-10-05T09:29:18.544Z,14.29
2017-10-05T09:31:47.912Z,14.46
2017-10-05T09:34:16.976Z,14.50
2017-10-05T09:36:45.347Z,14.61
2017-10-05T09:39:14.459Z,14.68
2017-10-05T09:41:44.909Z,14.62
2017-10-05T09:44:13.284Z,14.67
2017-10-05T09:46:41.635Z,14.67
2017-10-05T09:49:10.006Z,14.86
2017-10-05T09:51:40.883Z,15.03
2017-10-05T09:54:09.278Z,14.86
2017-10-05T09:56:37.847Z,14.87
2017-10-05T09:59:06.228Z,14.93
2017-10-05T10:01:34.560Z,15.22
2017-10-05T10:04:03.153Z,15.32
2017-10-05T10:06:32.290Z,15.58
2017-10-05T10:09:01.768Z,15.47
2017-10-05T10:11:31.143Z,15.52
2017-10-05T10:13:59.630Z,15.71
2017-10-05T10:16:28.942Z,15.68
2017-10-05T10:18:58.807Z,15.60
2017-10-05T10:21:27.488Z,15.63
2017-10-05T10:23:57.008Z,15.66
2017-10-05T10:26:25.853Z,15.60
2017-10-05T10:28:56.668Z,15.70
2017-10-05T10:31:25.312Z,15.91
2017-10-05T10:33:54.474Z,15.95
2017-10-05T10:36:23.645Z,16.94
2017-10-05T10:38:51.990Z,17.80
2017-10-05T10:41:21.100Z,17.92
2017-10-05T10:43:49.555Z,18.93
2017-10-05T10:46:18.786Z,18.53
2017-10-05T10:48:47.123Z,18.55
2017-10-05T10:51:16.440Z,19.18
2017-10-05T10:53:44.807Z,18.79
2017-10-05T10:56:13.137Z,18.55
2017-10-05T10:58:42.338Z,18.87
2017-10-05T11:01:11.529Z,20.45
2017-10-05T11:03:40.665Z,20.44
2017-10-05T11:06:09.039Z,19.28
2017-10-05T11:08:37.753Z,19.01
2017-10-05T11:11:07.432Z,18.59
2017-10-05T11:13:36.060Z,18.34
2017-10-05T11:16:04.444Z,18.12
2017-10-05T11:18:33.012Z,18.32
2017-10-05T11:21:01.527Z,18.00
2017-10-05T11:23:31.440Z,17.96
2017-10-05T11:25:59.773Z,17.68
2017-10-05T11:28:28.919Z,17.37
2017-10-05T11:30:57.290Z,17.13
2017-10-05T11:33:26.248Z,17.22
2017-10-05T11:35:55.146Z,17.09
2017-10-05T11:38:24.470Z,16.89
2017-10-05T11:40:52.842Z,16.45
2017-10-05T11:43:21.721Z,16.38
2017-10-05T11:45:50.047Z,16.37
2017-10-05T11:48:18.405Z,16.48
2017-10-05T11:50:46.775Z,16.33
2017-10-05T11:53:16.550Z,16.49
2017-10-05T11:55:45.907Z,15.85
2017-10-05T11:58:14.262Z,15.17
2017-10-05T12:00:42.915Z,15.05
2017-10-05T12:03:11.915Z,14.60
2017-10-05T12:05:40.359Z,14.36
2017-10-05T12:08:09.794Z,14.35
2017-10-05T12:10:38.581Z,14.11
2017-10-05T12:13:07.657Z,13.87
2017-10-05T12:15:37.285Z,13.50
2017-10-05T12:18:05.662Z,13.47
2017-10-05T12:20:34.782Z,13.64
2017-10-05T12:23:03.727Z,13.41
2017-10-05T12:25:32.837Z,13.45
2017-10-05T12:28:02.092Z,13.47
2017-10-05T12:30:30.972Z,13.30
2017-10-05T12:33:00.707Z,13.24
2017-10-05T12:35:29.114Z,13.11
2017-10-05T12:37:58.205Z,12.99
2017-10-05T12:40:27.701Z,12.91
2017-10-05T12:42:56.080Z,13.22
2017-10-05T12:45:24.429Z,13.43
2017-10-05T12:47:52.780Z,13.17
2017-10-05T12:50:21.233Z,13.21
2017-10-05T12:52:49.646Z,13.20
2017-10-05T12:55:18.008Z,13.26
2017-10-05T12:57:46.376Z,13.51
2017-10-05T13:00:15.729Z,13.44
2017-10-05T13:02:44.074Z,13.20
2017-10-05T13:05:13.825Z,13.26
2017-10-05T13:07:43.208Z,13.76
2017-10-05T13:10:11.542Z,14.17
2017-10-05T13:12:39.979Z,14.24
2017-10-05T13:15:08.333Z,14.77
2017-10-05T13:17:36.672Z,14.60
2017-10-05T13:20:06.520Z,14.44
2017-10-05T13:22:34.857Z,14.23
2017-10-05T13:25:03.325Z,14.50
2017-10-05T13:27:31.691Z,14.52
2017-10-05T13:30:00.641Z,15.05
2017-10-05T13:32:29.678Z,17.48
2017-10-05T13:34:58.362Z,18.74
2017-10-05T13:37:27.045Z,17.94
2017-10-05T13:39:55.393Z,18.39
2017-10-05T13:42:23.745Z,19.21
2017-10-05T13:44:53.786Z,18.77
2017-10-05T13:47:22.346Z,18.77
2017-10-05T13:49:51.478Z,19.41
2017-10-05T13:52:19.815Z,19.14
2017-10-05T13:54:49.365Z,20.02
2017-10-05T13:57:17.943Z,21.30
2017-10-05T13:59:47.885Z,21.40
2017-10-05T14:02:16.223Z,22.47
2017-10-05T14:04:45.363Z,23.01
2017-10-05T14:07:13.802Z,23.21
2017-10-05T14:09:42.181Z,23.07
2017-10-05T14:12:11.332Z,24.14
2017-10-05T14:14:40.120Z,24.77
2017-10-05T14:17:08.459Z,22.54
2017-10-05T14:19:37.003Z,23.00
2017-10-05T14:22:05.609Z,22.77
2017-10-05T14:24:34.005Z,23.55
2017-10-05T14:27:02.403Z,23.38
2017-10-05T14:29:30.722Z,24.19
2017-10-05T14:31:59.879Z,24.86
2017-10-05T14:34:28.254Z,23.24
2017-10-05T14:36:56.816Z,21.44
2017-10-05T14:39:25.173Z,20.67
2017-10-05T14:41:54.494Z,20.38
2017-10-05T14:44:22.896Z,20.15
2017-10-05T14:46:52.231Z,20.36
2017-10-05T14:49:21.930Z,21.03
2017-10-05T14:51:50.287Z,21.99
2017-10-05T14:54:18.616Z,22.72
2017-10-05T14:56:47.296Z,23.12
2017-10-05T14:59:15.630Z,23.63
2017-10-05T15:01:45.325Z,23.72
2017-10-05T15:04:14.514Z,24.04
2017-10-05T15:06:43.616Z,24.22
2017-10-05T15:09:13.172Z,23.39
2017-10-05T15:11:42.473Z,22.33
2017-10-05T15:14:11.033Z,21.96
2017-10-05T15:16:39.863Z,22.08
2017-10-05T15:19:09.007Z,21.11
2017-10-05T15:21:37.346Z,20.60
2017-10-05T15:24:05.694Z,20.37
2017-10-05T15:26:36.109Z,18.94
2017-10-05T15:29:05.086Z,18.60
2017-10-05T15:31:33.660Z,18.05
2017-10-05T15:34:02.471Z,17.90
2017-10-05T15:36:31.460Z,17.88
2017-10-05T15:38:59.849Z,17.56
2017-10-05T15:41:29.028Z,17.52
2017-10-05T15:43:58.292Z,17.12
2017-10-05T15:46:27.439Z,16.74
2017-10-05T15:48:55.874Z,16.60
2017-10-05T15:51:24.235Z,16.55
2017-10-05T15:53:52.884Z,16.55
2017-10-05T15:56:22.082Z,16.55
2017-10-05T15:58:50.466Z,16.50
2017-10-05T16:01:19.249Z,16.31
2017-10-05T16:03:48.468Z,16.16
2017-10-05T16:06:17.237Z,16.11
2017-10-05T16:08:46.302Z,15.99
2017-10-05T16:11:16.634Z,15.77
2017-10-05T16:13:44.989Z,15.78
2017-10-05T16:16:13.877Z,15.52
2017-10-05T16:18:42.232Z,15.16
2017-10-05T16:21:11.829Z,15.08
2017-10-05T16:23:40.335Z,15.12
2017-10-05T16:26:12.182Z,15.00
2017-10-05T16:28:40.534Z,14.89
2017-10-05T16:31:08.950Z,14.81
2017-10-05T16:33:37.475Z,14.52
2017-10-05T16:36:07.211Z,14.50
2017-10-05T16:38:35.715Z,14.47
2017-10-05T16:41:04.099Z,14.37
2017-10-05T16:43:32.447Z,14.47
2017-10-05T16:46:01.457Z,14.53
2017-10-05T16:48:31.026Z,14.47
2017-10-05T16:50:59.377Z,14.43
2017-10-05T16:53:28.552Z,14.09
2017-10-05T16:55:57.402Z,14.25
2017-10-05T16:58:26.220Z,14.36
2017-10-05T17:00:54.558Z,14.25
2017-10-05T17:03:23.704Z,14.08
2017-10-05T17:05:52.522Z,13.96
2017-10-05T17:08:20.872Z,14.00
2017-10-05T17:10:49.827Z,14.02
2017-10-05T17:13:19.114Z,14.28
2017-10-05T17:15:48.229Z,14.16
2017-10-05T17:18:17.610Z,14.08
2017-10-05T17:20:46.665Z,14.23
2017-10-05T17:23:15.528Z,14.04
2017-10-05T17:25:44.805Z,14.18
2017-10-05T17:28:13.927Z,14.24
2017-10-05T17:30:44.561Z,14.13
2017-10-05T17:33:12.945Z,14.10
2017-10-05T17:35:41.296Z,14.33
2017-10-05T17:38:09.667Z,14.12
2017-10-05T17:40:38.949Z,14.36
2017-10-05T17:43:08.282Z,14.16
2017-10-05T17:45:36.628Z,14.06
2017-10-05T17:48:05.004Z,14.11
2017-10-05T17:50:34.179Z,14.15
2017-10-05T17:53:02.554Z,14.04
2017-10-05T17:55:31.154Z,13.90
2017-10-05T17:57:59.677Z,13.87
2017-10-05T18:00:28.023Z,13.74
2017-10-05T18:02:57.026Z,13.57
2017-10-05T18:05:26.558Z,13.82
2017-10-05T18:07:54.903Z,13.81
2017-10-05T18:10:23.283Z,13.89
2017-10-05T18:12:51.844Z,13.79
2017-10-05T18:15:20.250Z,13.66
2017-10-05T18:17:48.998Z,13.72
2017-10-05T18:20:17.343Z,13.76
2017-10-05T18:22:46.625Z,13.73
2017-10-05T18:25:15.580Z,13.55
2017-10-05T18:27:44.486Z,13.57
2017-10-05T18:30:12.842Z,13.14
2017-10-05T18:32:41.208Z,13.24
2017-10-05T18:35:10.746Z,13.46
2017-10-05T18:37:39.848Z,13.44
2017-10-05T18:40:08.549Z,13.46
2017-10-05T18:42:38.176Z,13.43
2017-10-05T18:45:07.636Z,13.57
2017-10-05T18:47:36.186Z,13.49
2017-10-05T18:50:05.486Z,13.44
2017-10-05T18:52:33.845Z,13.42
2017-10-05T18:55:02.988Z,13.37
2017-10-05T18:57:31.390Z,13.39
2017-10-05T18:59:59.751Z,13.37
2017-10-05T19:02:28.167Z,13.45
2017-10-05T19:04:56.594Z,13.25
2017-10-05T19:07:24.941Z,13.30
2017-10-05T19:09:53.428Z,13.31
2017-10-05T19:12:22.449Z,13.36
2017-10-05T19:14:50.793Z,13.39
2017-10-05T19:17:20.996Z,13.48
2017-10-05T19:19:49.406Z,13.57
2017-10-05T19:22:17.761Z,13.60
2017-10-05T19:24:47.142Z,13.81
2017-10-05T19:27:15.520Z,13.79
2017-10-05T19:29:44.553Z,14.07
2017-10-05T19:32:14.064Z,14.09
2017-10-05T19:34:42.405Z,14.15
2017-10-05T19:37:12.449Z,13.67
2017-10-05T19:39:43.412Z,13.55
2017-10-05T19:42:11.779Z,13.42
2017-10-05T19:44:40.912Z,13.43
2017-10-05T19:47:10.070Z,13.54
2017-10-05T19:49:39.370Z,13.48
2017-10-05T19:52:07.936Z,13.33
2017-10-05T19:54:36.805Z,13.33
2017-10-05T19:57:05.658Z,13.12
2017-10-05T19:59:34.028Z,13.16
2017-10-05T20:02:02.820Z,13.10
2017-10-05T20:04:32.002Z,12.94
2017-10-05T20:07:01.855Z,13.14
2017-10-05T20:09:30.846Z,13.18
2017-10-05T20:11:59.227Z,13.36
2017-10-05T20:14:27.587Z,13.48
2017-10-05T20:17:07.567Z,13.33
